sensor_id;sensor_type;location;lat;lon;timestamp;P1;durP1;ratioP1;P2;durP2;ratioP2
37305;SDS011;23193;42.656;21.170;2024-03-25T00:01:41;16.42;;;10.65;;
37305;SDS011;23193;42.656;21.170;2024-03-25T00:04:06;45.67;;;23.75;;
37305;SDS011;23193;42.656;21.170;2024-03-25T00:06:33;16.63;;;11.10;;
37305;SDS011;23193;42.656;21.170;2024-03-25T00:08:59;15.38;;;10.45;;
37305;SDS011;23193;42.656;21.170;2024-03-25T00:11:26;16.17;;;10.38;;
37305;SDS011;23193;42.656;21.170;2024-03-25T00:13:52;14.20;;;10.30;;
37305;SDS011;23193;42.656;21.170;2024-03-25T00:16:18;11.15;;;8.35;;
37305;SDS011;23193;42.656;21.170;2024-03-25T00:18:44;16.08;;;11.27;;
37305;SDS011;23193;42.656;21.170;2024-03-25T00:21:10;14.20;;;10.15;;
37305;SDS011;23193;42.656;21.170;2024-03-25T00:23:36;15.10;;;9.65;;
37305;SDS011;23193;42.656;21.170;2024-03-25T00:26:03;17.85;;;11.00;;
37305;SDS011;23193;42.656;21.170;2024-03-25T00:28:29;17.05;;;11.10;;
37305;SDS011;23193;42.656;21.170;2024-03-25T00:30:55;15.32;;;10.50;;
37305;SDS011;23193;42.656;21.170;2024-03-25T00:33:21;16.80;;;11.68;;
37305;SDS011;23193;42.656;21.170;2024-03-25T00:35:47;16.40;;;11.93;;
37305;SDS011;23193;42.656;21.170;2024-03-25T00:38:13;20.08;;;13.50;;
37305;SDS011;23193;42.656;21.170;2024-03-25T00:40:39;17.40;;;12.73;;
37305;SDS011;23193;42.656;21.170;2024-03-25T00:43:05;16.75;;;12.75;;
37305;SDS011;23193;42.656;21.170;2024-03-25T00:50:49;20.10;;;12.18;;
37305;SDS011;23193;42.656;21.170;2024-03-25T00:53:15;18.13;;;12.05;;
37305;SDS011;23193;42.656;21.170;2024-03-25T00:55:41;19.85;;;13.13;;
37305;SDS011;23193;42.656;21.170;2024-03-25T00:58:07;18.08;;;11.75;;
37305;SDS011;23193;42.656;21.170;2024-03-25T01:00:33;22.23;;;14.45;;
37305;SDS011;23193;42.656;21.170;2024-03-25T01:02:59;24.38;;;15.13;;
37305;SDS011;23193;42.656;21.170;2024-03-25T01:05:25;27.13;;;16.98;;
37305;SDS011;23193;42.656;21.170;2024-03-25T01:07:51;22.55;;;15.02;;
37305;SDS011;23193;42.656;21.170;2024-03-25T01:10:17;28.23;;;16.80;;
37305;SDS011;23193;42.656;21.170;2024-03-25T01:12:43;21.33;;;13.27;;
37305;SDS011;23193;42.656;21.170;2024-03-25T01:15:09;23.05;;;14.45;;
37305;SDS011;23193;42.656;21.170;2024-03-25T01:17:38;20.27;;;13.35;;
37305;SDS011;23193;42.656;21.170;2024-03-25T01:20:04;22.58;;;14.38;;
37305;SDS011;23193;42.656;21.170;2024-03-25T01:22:30;21.77;;;13.13;;
37305;SDS011;23193;42.656;21.170;2024-03-25T01:24:57;19.52;;;12.90;;
37305;SDS011;23193;42.656;21.170;2024-03-25T01:27:23;23.23;;;13.20;;
37305;SDS011;23193;42.656;21.170;2024-03-25T01:29:49;22.08;;;12.93;;
37305;SDS011;23193;42.656;21.170;2024-03-25T01:32:15;35.60;;;20.92;;
37305;SDS011;23193;42.656;21.170;2024-03-25T01:34:41;38.13;;;23.13;;
37305;SDS011;23193;42.656;21.170;2024-03-25T01:37:07;28.95;;;17.08;;
37305;SDS011;23193;42.656;21.170;2024-03-25T01:39:32;24.58;;;16.40;;
37305;SDS011;23193;42.656;21.170;2024-03-25T01:41:59;30.70;;;18.80;;
37305;SDS011;23193;42.656;21.170;2024-03-25T01:44:24;26.60;;;16.80;;
37305;SDS011;23193;42.656;21.170;2024-03-25T01:46:50;32.95;;;20.55;;
37305;SDS011;23193;42.656;21.170;2024-03-25T01:49:18;49.95;;;27.80;;
37305;SDS011;23193;42.656;21.170;2024-03-25T01:51:44;48.72;;;29.00;;
37305;SDS011;23193;42.656;21.170;2024-03-25T01:54:10;57.67;;;34.78;;
37305;SDS011;23193;42.656;21.170;2024-03-25T01:56:39;53.50;;;31.67;;
37305;SDS011;23193;42.656;21.170;2024-03-25T01:59:07;50.33;;;30.77;;
37305;SDS011;23193;42.656;21.170;2024-03-25T02:01:33;44.60;;;28.98;;
37305;SDS011;23193;42.656;21.170;2024-03-25T02:03:59;56.85;;;35.40;;
37305;SDS011;23193;42.656;21.170;2024-03-25T02:06:26;58.63;;;36.88;;
37305;SDS011;23193;42.656;21.170;2024-03-25T02:08:52;57.55;;;36.38;;
37305;SDS011;23193;42.656;21.170;2024-03-25T02:11:19;58.95;;;35.30;;
37305;SDS011;23193;42.656;21.170;2024-03-25T02:13:45;60.65;;;36.78;;
37305;SDS011;23193;42.656;21.170;2024-03-25T02:16:11;56.72;;;35.45;;
37305;SDS011;23193;42.656;21.170;2024-03-25T02:18:37;57.08;;;33.58;;
37305;SDS011;23193;42.656;21.170;2024-03-25T02:21:03;52.50;;;33.13;;
37305;SDS011;23193;42.656;21.170;2024-03-25T02:23:29;53.55;;;32.78;;
37305;SDS011;23193;42.656;21.170;2024-03-25T02:25:55;54.17;;;30.95;;
37305;SDS011;23193;42.656;21.170;2024-03-25T02:28:21;50.92;;;30.10;;
37305;SDS011;23193;42.656;21.170;2024-03-25T02:30:47;54.45;;;31.38;;
37305;SDS011;23193;42.656;21.170;2024-03-25T02:33:13;45.98;;;27.54;;
37305;SDS011;23193;42.656;21.170;2024-03-25T02:35:40;47.95;;;29.65;;
37305;SDS011;23193;42.656;21.170;2024-03-25T02:38:07;46.60;;;27.33;;
37305;SDS011;23193;42.656;21.170;2024-03-25T02:40:34;43.92;;;26.40;;
37305;SDS011;23193;42.656;21.170;2024-03-25T02:43:00;40.63;;;25.30;;
37305;SDS011;23193;42.656;21.170;2024-03-25T02:45:26;43.42;;;25.30;;
37305;SDS011;23193;42.656;21.170;2024-03-25T02:47:52;47.65;;;26.48;;
37305;SDS011;23193;42.656;21.170;2024-03-25T02:50:18;44.92;;;25.00;;
37305;SDS011;23193;42.656;21.170;2024-03-25T02:52:44;38.97;;;24.58;;
37305;SDS011;23193;42.656;21.170;2024-03-25T02:55:10;39.58;;;25.23;;
37305;SDS011;23193;42.656;21.170;2024-03-25T02:57:36;41.97;;;25.05;;
37305;SDS011;23193;42.656;21.170;2024-03-25T03:00:02;43.53;;;24.30;;
37305;SDS011;23193;42.656;21.170;2024-03-25T03:02:29;40.35;;;25.55;;
37305;SDS011;23193;42.656;21.170;2024-03-25T03:04:55;49.63;;;27.33;;
37305;SDS011;23193;42.656;21.170;2024-03-25T03:07:21;37.03;;;23.65;;
37305;SDS011;23193;42.656;21.170;2024-03-25T03:09:47;37.50;;;22.98;;
37305;SDS011;23193;42.656;21.170;2024-03-25T03:12:13;41.35;;;24.40;;
37305;SDS011;23193;42.656;21.170;2024-03-25T03:14:39;30.05;;;20.35;;
37305;SDS011;23193;42.656;21.170;2024-03-25T03:17:04;37.42;;;21.77;;
37305;SDS011;23193;42.656;21.170;2024-03-25T03:19:31;35.22;;;20.75;;
37305;SDS011;23193;42.656;21.170;2024-03-25T03:21:57;38.58;;;21.33;;
37305;SDS011;23193;42.656;21.170;2024-03-25T03:24:23;32.95;;;21.33;;
37305;SDS011;23193;42.656;21.170;2024-03-25T03:26:49;30.08;;;18.52;;
37305;SDS011;23193;42.656;21.170;2024-03-25T03:29:15;26.55;;;17.17;;
37305;SDS011;23193;42.656;21.170;2024-03-25T03:31:41;28.33;;;17.50;;
37305;SDS011;23193;42.656;21.170;2024-03-25T03:34:07;25.08;;;15.88;;
37305;SDS011;23193;42.656;21.170;2024-03-25T03:36:33;20.75;;;13.20;;
37305;SDS011;23193;42.656;21.170;2024-03-25T03:38:59;18.73;;;12.57;;
37305;SDS011;23193;42.656;21.170;2024-03-25T03:41:25;19.48;;;11.77;;
37305;SDS011;23193;42.656;21.170;2024-03-25T03:43:51;18.17;;;11.43;;
37305;SDS011;23193;42.656;21.170;2024-03-25T03:46:17;16.52;;;10.57;;
37305;SDS011;23193;42.656;21.170;2024-03-25T03:48:47;16.63;;;10.73;;
37305;SDS011;23193;42.656;21.170;2024-03-25T03:51:13;20.33;;;12.88;;
37305;SDS011;23193;42.656;21.170;2024-03-25T03:53:39;17.45;;;10.77;;
37305;SDS011;23193;42.656;21.170;2024-03-25T03:56:05;18.10;;;10.48;;
37305;SDS011;23193;42.656;21.170;2024-03-25T03:58:31;12.50;;;8.07;;
37305;SDS011;23193;42.656;21.170;2024-03-25T04:00:57;13.93;;;9.35;;
37305;SDS011;23193;42.656;21.170;2024-03-25T04:03:24;14.45;;;9.20;;
37305;SDS011;23193;42.656;21.170;2024-03-25T04:05:50;11.23;;;7.32;;
37305;SDS011;23193;42.656;21.170;2024-03-25T04:08:16;13.23;;;8.35;;
37305;SDS011;23193;42.656;21.170;2024-03-25T04:10:43;11.13;;;7.13;;
37305;SDS011;23193;42.656;21.170;2024-03-25T04:13:09;10.75;;;6.47;;
37305;SDS011;23193;42.656;21.170;2024-03-25T04:15:35;11.68;;;7.80;;
37305;SDS011;23193;42.656;21.170;2024-03-25T04:18:02;11.18;;;7.60;;
37305;SDS011;23193;42.656;21.170;2024-03-25T04:20:28;12.75;;;7.18;;
37305;SDS011;23193;42.656;21.170;2024-03-25T04:22:55;11.85;;;7.82;;
37305;SDS011;23193;42.656;21.170;2024-03-25T04:25:21;16.38;;;8.07;;
37305;SDS011;23193;42.656;21.170;2024-03-25T04:27:47;14.25;;;8.93;;
37305;SDS011;23193;42.656;21.170;2024-03-25T04:30:13;18.77;;;12.45;;
37305;SDS011;23193;42.656;21.170;2024-03-25T04:32:39;26.63;;;16.63;;
37305;SDS011;23193;42.656;21.170;2024-03-25T04:35:08;29.88;;;18.15;;
37305;SDS011;23193;42.656;21.170;2024-03-25T04:37:34;28.67;;;17.48;;
37305;SDS011;23193;42.656;21.170;2024-03-25T04:40:01;33.17;;;20.67;;
37305;SDS011;23193;42.656;21.170;2024-03-25T04:42:27;31.10;;;18.75;;
37305;SDS011;23193;42.656;21.170;2024-03-25T04:44:53;30.45;;;18.85;;
37305;SDS011;23193;42.656;21.170;2024-03-25T04:47:20;32.25;;;19.98;;
37305;SDS011;23193;42.656;21.170;2024-03-25T04:49:45;32.10;;;19.80;;
37305;SDS011;23193;42.656;21.170;2024-03-25T04:52:12;32.38;;;19.27;;
37305;SDS011;23193;42.656;21.170;2024-03-25T04:54:44;32.70;;;20.15;;
37305;SDS011;23193;42.656;21.170;2024-03-25T04:57:10;30.30;;;19.55;;
37305;SDS011;23193;42.656;21.170;2024-03-25T04:59:36;32.90;;;19.67;;
37305;SDS011;23193;42.656;21.170;2024-03-25T05:02:02;27.83;;;17.15;;
37305;SDS011;23193;42.656;21.170;2024-03-25T05:04:28;29.45;;;17.45;;
37305;SDS011;23193;42.656;21.170;2024-03-25T05:06:54;26.67;;;17.30;;
37305;SDS011;23193;42.656;21.170;2024-03-25T05:09:21;42.17;;;23.23;;
37305;SDS011;23193;42.656;21.170;2024-03-25T05:11:47;48.75;;;27.00;;
37305;SDS011;23193;42.656;21.170;2024-03-25T05:14:12;49.72;;;30.63;;
37305;SDS011;23193;42.656;21.170;2024-03-25T05:16:38;51.85;;;33.20;;
37305;SDS011;23193;42.656;21.170;2024-03-25T05:19:04;52.33;;;31.52;;
37305;SDS011;23193;42.656;21.170;2024-03-25T05:21:31;55.33;;;32.58;;
37305;SDS011;23193;42.656;21.170;2024-03-25T05:23:57;53.08;;;34.17;;
37305;SDS011;23193;42.656;21.170;2024-03-25T05:26:23;77.28;;;39.45;;
37305;SDS011;23193;42.656;21.170;2024-03-25T05:28:55;80.82;;;38.60;;
37305;SDS011;23193;42.656;21.170;2024-03-25T05:31:21;79.22;;;38.63;;
37305;SDS011;23193;42.656;21.170;2024-03-25T05:33:47;78.38;;;37.58;;
37305;SDS011;23193;42.656;21.170;2024-03-25T05:36:13;81.82;;;38.58;;
37305;SDS011;23193;42.656;21.170;2024-03-25T05:38:39;72.45;;;37.20;;
37305;SDS011;23193;42.656;21.170;2024-03-25T05:41:06;73.53;;;36.63;;
37305;SDS011;23193;42.656;21.170;2024-03-25T05:43:31;75.10;;;37.72;;
37305;SDS011;23193;42.656;21.170;2024-03-25T05:45:58;84.15;;;41.17;;
37305;SDS011;23193;42.656;21.170;2024-03-25T05:48:24;78.10;;;39.70;;
37305;SDS011;23193;42.656;21.170;2024-03-25T05:51:01;92.25;;;42.35;;
37305;SDS011;23193;42.656;21.170;2024-03-25T05:53:28;92.82;;;40.13;;
37305;SDS011;23193;42.656;21.170;2024-03-25T05:55:54;103.22;;;46.40;;
37305;SDS011;23193;42.656;21.170;2024-03-25T05:58:20;103.65;;;45.53;;
37305;SDS011;23193;42.656;21.170;2024-03-25T06:00:47;96.20;;;42.63;;
37305;SDS011;23193;42.656;21.170;2024-03-25T06:03:13;99.85;;;42.70;;
37305;SDS011;23193;42.656;21.170;2024-03-25T06:05:39;102.55;;;43.60;;
37305;SDS011;23193;42.656;21.170;2024-03-25T06:08:06;106.40;;;43.83;;
37305;SDS011;23193;42.656;21.170;2024-03-25T06:10:36;102.00;;;41.97;;
37305;SDS011;23193;42.656;21.170;2024-03-25T06:13:02;93.85;;;40.40;;
37305;SDS011;23193;42.656;21.170;2024-03-25T06:15:29;93.63;;;39.40;;
37305;SDS011;23193;42.656;21.170;2024-03-25T06:17:55;85.97;;;37.70;;
37305;SDS011;23193;42.656;21.170;2024-03-25T06:20:20;96.28;;;38.38;;
37305;SDS011;23193;42.656;21.170;2024-03-25T06:22:47;91.75;;;39.10;;
37305;SDS011;23193;42.656;21.170;2024-03-25T06:25:13;91.35;;;39.55;;
37305;SDS011;23193;42.656;21.170;2024-03-25T06:27:39;89.03;;;41.95;;
37305;SDS011;23193;42.656;21.170;2024-03-25T06:30:06;90.22;;;42.28;;
37305;SDS011;23193;42.656;21.170;2024-03-25T06:32:51;88.45;;;43.83;;
37305;SDS011;23193;42.656;21.170;2024-03-25T06:35:36;80.57;;;40.75;;
37305;SDS011;23193;42.656;21.170;2024-03-25T06:38:02;70.68;;;36.17;;
37305;SDS011;23193;42.656;21.170;2024-03-25T06:40:29;79.18;;;39.13;;
37305;SDS011;23193;42.656;21.170;2024-03-25T06:42:55;72.63;;;34.30;;
37305;SDS011;23193;42.656;21.170;2024-03-25T06:45:21;62.65;;;32.50;;
37305;SDS011;23193;42.656;21.170;2024-03-25T06:47:47;65.95;;;34.25;;
37305;SDS011;23193;42.656;21.170;2024-03-25T06:50:13;74.05;;;35.35;;
37305;SDS011;23193;42.656;21.170;2024-03-25T06:52:39;59.45;;;31.10;;
37305;SDS011;23193;42.656;21.170;2024-03-25T06:55:05;55.33;;;27.88;;
37305;SDS011;23193;42.656;21.170;2024-03-25T06:57:31;37.65;;;21.33;;
37305;SDS011;23193;42.656;21.170;2024-03-25T06:59:57;33.60;;;18.55;;
37305;SDS011;23193;42.656;21.170;2024-03-25T07:02:23;36.72;;;21.00;;
37305;SDS011;23193;42.656;21.170;2024-03-25T07:04:49;37.88;;;21.10;;
37305;SDS011;23193;42.656;21.170;2024-03-25T07:07:15;33.17;;;19.15;;
37305;SDS011;23193;42.656;21.170;2024-03-25T07:09:41;35.70;;;20.00;;
37305;SDS011;23193;42.656;21.170;2024-03-25T07:12:07;29.77;;;17.65;;
37305;SDS011;23193;42.656;21.170;2024-03-25T07:14:34;26.63;;;16.70;;
37305;SDS011;23193;42.656;21.170;2024-03-25T07:16:59;26.48;;;16.70;;
37305;SDS011;23193;42.656;21.170;2024-03-25T07:19:25;34.92;;;18.52;;
37305;SDS011;23193;42.656;21.170;2024-03-25T07:21:51;29.80;;;17.85;;
37305;SDS011;23193;42.656;21.170;2024-03-25T07:24:17;26.13;;;15.07;;
37305;SDS011;23193;42.656;21.170;2024-03-25T07:26:43;26.80;;;16.38;;
37305;SDS011;23193;42.656;21.170;2024-03-25T07:29:09;27.55;;;15.57;;
37305;SDS011;23193;42.656;21.170;2024-03-25T07:31:35;26.83;;;15.85;;
37305;SDS011;23193;42.656;21.170;2024-03-25T07:34:01;28.67;;;16.33;;
37305;SDS011;23193;42.656;21.170;2024-03-25T07:36:27;24.77;;;16.58;;
37305;SDS011;23193;42.656;21.170;2024-03-25T07:38:55;25.23;;;15.48;;
37305;SDS011;23193;42.656;21.170;2024-03-25T07:41:21;28.63;;;17.42;;
37305;SDS011;23193;42.656;21.170;2024-03-25T07:43:48;29.02;;;17.85;;
37305;SDS011;23193;42.656;21.170;2024-03-25T07:46:14;38.35;;;21.33;;
37305;SDS011;23193;42.656;21.170;2024-03-25T07:48:40;35.55;;;21.42;;
37305;SDS011;23193;42.656;21.170;2024-03-25T07:51:08;38.70;;;23.17;;
37305;SDS011;23193;42.656;21.170;2024-03-25T07:53:34;37.42;;;22.00;;
37305;SDS011;23193;42.656;21.170;2024-03-25T07:56:00;27.95;;;17.75;;
37305;SDS011;23193;42.656;21.170;2024-03-25T07:58:26;28.63;;;17.27;;
37305;SDS011;23193;42.656;21.170;2024-03-25T08:00:52;31.48;;;18.77;;
37305;SDS011;23193;42.656;21.170;2024-03-25T08:03:18;29.70;;;17.45;;
37305;SDS011;23193;42.656;21.170;2024-03-25T08:05:44;29.90;;;17.85;;
37305;SDS011;23193;42.656;21.170;2024-03-25T08:08:10;30.20;;;18.95;;
37305;SDS011;23193;42.656;21.170;2024-03-25T08:10:36;32.67;;;19.42;;
37305;SDS011;23193;42.656;21.170;2024-03-25T08:13:03;29.67;;;19.10;;
37305;SDS011;23193;42.656;21.170;2024-03-25T08:15:30;35.75;;;21.23;;
37305;SDS011;23193;42.656;21.170;2024-03-25T08:17:56;34.28;;;20.73;;
37305;SDS011;23193;42.656;21.170;2024-03-25T08:20:22;29.88;;;17.77;;
37305;SDS011;23193;42.656;21.170;2024-03-25T08:22:48;24.73;;;12.55;;
37305;SDS011;23193;42.656;21.170;2024-03-25T08:25:14;18.65;;;11.85;;
37305;SDS011;23193;42.656;21.170;2024-03-25T08:27:40;17.48;;;10.50;;
37305;SDS011;23193;42.656;21.170;2024-03-25T08:30:07;20.33;;;12.52;;
37305;SDS011;23193;42.656;21.170;2024-03-25T08:32:33;19.80;;;11.55;;
37305;SDS011;23193;42.656;21.170;2024-03-25T08:34:59;17.90;;;10.68;;
37305;SDS011;23193;42.656;21.170;2024-03-25T08:37:25;20.45;;;13.05;;
37305;SDS011;23193;42.656;21.170;2024-03-25T08:39:51;27.38;;;14.77;;
37305;SDS011;23193;42.656;21.170;2024-03-25T08:42:17;29.60;;;14.13;;
37305;SDS011;23193;42.656;21.170;2024-03-25T08:44:43;23.73;;;13.23;;
37305;SDS011;23193;42.656;21.170;2024-03-25T08:47:09;25.83;;;15.25;;
37305;SDS011;23193;42.656;21.170;2024-03-25T08:49:35;40.08;;;23.23;;
37305;SDS011;23193;42.656;21.170;2024-03-25T08:52:01;45.22;;;25.15;;
37305;SDS011;23193;42.656;21.170;2024-03-25T08:54:27;49.50;;;26.75;;
37305;SDS011;23193;42.656;21.170;2024-03-25T08:56:53;45.35;;;25.15;;
37305;SDS011;23193;42.656;21.170;2024-03-25T08:59:19;42.58;;;23.50;;
37305;SDS011;23193;42.656;21.170;2024-03-25T09:01:45;44.47;;;23.25;;
37305;SDS011;23193;42.656;21.170;2024-03-25T09:04:11;52.97;;;28.58;;
37305;SDS011;23193;42.656;21.170;2024-03-25T09:06:37;51.17;;;29.98;;
37305;SDS011;23193;42.656;21.170;2024-03-25T09:09:03;54.90;;;26.88;;
37305;SDS011;23193;42.656;21.170;2024-03-25T09:11:48;70.55;;;35.10;;
37305;SDS011;23193;42.656;21.170;2024-03-25T09:14:14;47.15;;;27.13;;
37305;SDS011;23193;42.656;21.170;2024-03-25T09:16:41;59.17;;;31.70;;
37305;SDS011;23193;42.656;21.170;2024-03-25T09:19:07;56.35;;;31.63;;
37305;SDS011;23193;42.656;21.170;2024-03-25T09:21:33;50.40;;;31.38;;
37305;SDS011;23193;42.656;21.170;2024-03-25T09:23:59;56.22;;;29.05;;
37305;SDS011;23193;42.656;21.170;2024-03-25T09:26:25;50.88;;;27.08;;
37305;SDS011;23193;42.656;21.170;2024-03-25T09:28:50;49.55;;;27.70;;
37305;SDS011;23193;42.656;21.170;2024-03-25T09:31:17;43.03;;;24.63;;
37305;SDS011;23193;42.656;21.170;2024-03-25T09:33:43;43.75;;;24.63;;
37305;SDS011;23193;42.656;21.170;2024-03-25T09:36:09;40.95;;;22.52;;
37305;SDS011;23193;42.656;21.170;2024-03-25T09:38:36;49.90;;;23.75;;
37305;SDS011;23193;42.656;21.170;2024-03-25T09:41:02;47.85;;;23.15;;
37305;SDS011;23193;42.656;21.170;2024-03-25T09:43:33;51.92;;;28.15;;
37305;SDS011;23193;42.656;21.170;2024-03-25T09:46:03;51.03;;;26.92;;
37305;SDS011;23193;42.656;21.170;2024-03-25T09:48:29;44.67;;;24.77;;
37305;SDS011;23193;42.656;21.170;2024-03-25T09:50:56;48.83;;;24.17;;
37305;SDS011;23193;42.656;21.170;2024-03-25T09:53:22;42.28;;;22.25;;
37305;SDS011;23193;42.656;21.170;2024-03-25T09:55:49;52.58;;;24.40;;
37305;SDS011;23193;42.656;21.170;2024-03-25T09:58:15;47.78;;;23.45;;
37305;SDS011;23193;42.656;21.170;2024-03-25T10:00:41;47.53;;;23.38;;
37305;SDS011;23193;42.656;21.170;2024-03-25T10:03:08;53.20;;;22.30;;
37305;SDS011;23193;42.656;21.170;2024-03-25T10:05:34;39.05;;;19.63;;
37305;SDS011;23193;42.656;21.170;2024-03-25T10:08:00;37.15;;;16.77;;
37305;SDS011;23193;42.656;21.170;2024-03-25T10:10:26;39.10;;;17.83;;
37305;SDS011;23193;42.656;21.170;2024-03-25T10:12:54;38.22;;;16.23;;
37305;SDS011;23193;42.656;21.170;2024-03-25T10:15:20;35.38;;;16.95;;
37305;SDS011;23193;42.656;21.170;2024-03-25T10:17:48;38.95;;;18.15;;
37305;SDS011;23193;42.656;21.170;2024-03-25T10:20:15;43.47;;;17.10;;
37305;SDS011;23193;42.656;21.170;2024-03-25T10:22:41;32.45;;;14.50;;
37305;SDS011;23193;42.656;21.170;2024-03-25T10:25:07;52.95;;;25.02;;
37305;SDS011;23193;42.656;21.170;2024-03-25T10:27:33;35.92;;;16.17;;
37305;SDS011;23193;42.656;21.170;2024-03-25T10:29:59;42.78;;;14.90;;
37305;SDS011;23193;42.656;21.170;2024-03-25T10:32:27;54.60;;;20.25;;
37305;SDS011;23193;42.656;21.170;2024-03-25T10:34:56;28.15;;;12.43;;
37305;SDS011;23193;42.656;21.170;2024-03-25T10:37:23;35.83;;;13.95;;
37305;SDS011;23193;42.656;21.170;2024-03-25T10:39:52;25.27;;;12.23;;
37305;SDS011;23193;42.656;21.170;2024-03-25T10:42:20;28.88;;;12.40;;
37305;SDS011;23193;42.656;21.170;2024-03-25T10:44:47;24.13;;;11.75;;
37305;SDS011;23193;42.656;21.170;2024-03-25T10:47:17;28.77;;;12.23;;
37305;SDS011;23193;42.656;21.170;2024-03-25T10:52:11;39.95;;;14.90;;
37305;SDS011;23193;42.656;21.170;2024-03-25T10:54:37;39.40;;;15.25;;
37305;SDS011;23193;42.656;21.170;2024-03-25T10:57:03;38.45;;;16.08;;
37305;SDS011;23193;42.656;21.170;2024-03-25T10:59:30;38.65;;;15.93;;
37305;SDS011;23193;42.656;21.170;2024-03-25T11:01:57;54.47;;;23.05;;
37305;SDS011;23193;42.656;21.170;2024-03-25T11:04:26;49.95;;;15.15;;
37305;SDS011;23193;42.656;21.170;2024-03-25T11:06:52;50.83;;;15.93;;
37305;SDS011;23193;42.656;21.170;2024-03-25T11:09:22;40.17;;;14.07;;
37305;SDS011;23193;42.656;21.170;2024-03-25T11:11:52;39.75;;;14.82;;
37305;SDS011;23193;42.656;21.170;2024-03-25T11:14:19;32.72;;;14.70;;
37305;SDS011;23193;42.656;21.170;2024-03-25T11:16:57;41.42;;;15.32;;
37305;SDS011;23193;42.656;21.170;2024-03-25T11:19:27;27.83;;;13.27;;
37305;SDS011;23193;42.656;21.170;2024-03-25T11:21:53;40.35;;;12.93;;
37305;SDS011;23193;42.656;21.170;2024-03-25T11:24:28;38.67;;;14.10;;
37305;SDS011;23193;42.656;21.170;2024-03-25T11:27:02;36.40;;;12.93;;
37305;SDS011;23193;42.656;21.170;2024-03-25T11:29:29;23.05;;;10.73;;
37305;SDS011;23193;42.656;21.170;2024-03-25T11:31:55;26.63;;;11.85;;
37305;SDS011;23193;42.656;21.170;2024-03-25T11:34:25;15.95;;;8.02;;
37305;SDS011;23193;42.656;21.170;2024-03-25T11:36:51;21.75;;;9.52;;
37305;SDS011;23193;42.656;21.170;2024-03-25T11:39:22;10.40;;;4.38;;
37305;SDS011;23193;42.656;21.170;2024-03-25T11:41:48;11.52;;;4.85;;
37305;SDS011;23193;42.656;21.170;2024-03-25T11:44:14;13.38;;;4.43;;
37305;SDS011;23193;42.656;21.170;2024-03-25T11:46:40;8.30;;;4.50;;
37305;SDS011;23193;42.656;21.170;2024-03-25T11:49:07;11.40;;;5.25;;
37305;SDS011;23193;42.656;21.170;2024-03-25T11:51:33;5.55;;;3.47;;
37305;SDS011;23193;42.656;21.170;2024-03-25T11:54:02;4.55;;;2.95;;
37305;SDS011;23193;42.656;21.170;2024-03-25T11:56:32;6.03;;;3.17;;
37305;SDS011;23193;42.656;21.170;2024-03-25T11:58:59;4.72;;;2.90;;
37305;SDS011;23193;42.656;21.170;2024-03-25T12:01:25;4.15;;;2.80;;
37305;SDS011;23193;42.656;21.170;2024-03-25T12:03:52;7.85;;;3.28;;
37305;SDS011;23193;42.656;21.170;2024-03-25T12:06:18;8.52;;;3.50;;
37305;SDS011;23193;42.656;21.170;2024-03-25T12:08:44;9.68;;;3.88;;
37305;SDS011;23193;42.656;21.170;2024-03-25T12:11:31;7.05;;;4.47;;
37305;SDS011;23193;42.656;21.170;2024-03-25T12:13:57;6.97;;;3.65;;
37305;SDS011;23193;42.656;21.170;2024-03-25T12:16:24;11.20;;;3.80;;
37305;SDS011;23193;42.656;21.170;2024-03-25T12:18:50;12.05;;;3.97;;
37305;SDS011;23193;42.656;21.170;2024-03-25T12:21:17;8.95;;;3.75;;
37305;SDS011;23193;42.656;21.170;2024-03-25T12:23:43;4.13;;;2.47;;
37305;SDS011;23193;42.656;21.170;2024-03-25T12:26:09;3.53;;;2.65;;
37305;SDS011;23193;42.656;21.170;2024-03-25T12:28:37;9.45;;;3.72;;
37305;SDS011;23193;42.656;21.170;2024-03-25T12:31:07;7.50;;;3.03;;
37305;SDS011;23193;42.656;21.170;2024-03-25T12:33:45;5.38;;;2.85;;
37305;SDS011;23193;42.656;21.170;2024-03-25T12:36:11;8.38;;;3.33;;
37305;SDS011;23193;42.656;21.170;2024-03-25T12:38:38;6.85;;;2.78;;
37305;SDS011;23193;42.656;21.170;2024-03-25T12:41:04;5.50;;;2.72;;
37305;SDS011;23193;42.656;21.170;2024-03-25T12:43:31;4.63;;;2.65;;
37305;SDS011;23193;42.656;21.170;2024-03-25T12:45:58;4.95;;;2.65;;
37305;SDS011;23193;42.656;21.170;2024-03-25T12:48:24;5.60;;;2.45;;
37305;SDS011;23193;42.656;21.170;2024-03-25T12:50:52;10.90;;;3.80;;
37305;SDS011;23193;42.656;21.170;2024-03-25T12:53:19;6.38;;;2.40;;
37305;SDS011;23193;42.656;21.170;2024-03-25T12:55:45;4.50;;;2.42;;
37305;SDS011;23193;42.656;21.170;2024-03-25T12:58:11;2.95;;;2.22;;
37305;SDS011;23193;42.656;21.170;2024-03-25T13:00:37;5.85;;;2.45;;
37305;SDS011;23193;42.656;21.170;2024-03-25T13:03:07;6.25;;;2.83;;
37305;SDS011;23193;42.656;21.170;2024-03-25T13:05:33;6.50;;;2.78;;
37305;SDS011;23193;42.656;21.170;2024-03-25T13:08:00;6.90;;;3.10;;
37305;SDS011;23193;42.656;21.170;2024-03-25T13:10:26;14.10;;;3.83;;
37305;SDS011;23193;42.656;21.170;2024-03-25T13:12:52;3.42;;;2.63;;
37305;SDS011;23193;42.656;21.170;2024-03-25T13:15:19;10.75;;;3.08;;
37305;SDS011;23193;42.656;21.170;2024-03-25T13:17:47;21.92;;;9.35;;
37305;SDS011;23193;42.656;21.170;2024-03-25T13:20:15;8.10;;;5.15;;
37305;SDS011;23193;42.656;21.170;2024-03-25T13:22:41;7.63;;;5.15;;
37305;SDS011;23193;42.656;21.170;2024-03-25T13:25:13;5.93;;;2.72;;
37305;SDS011;23193;42.656;21.170;2024-03-25T13:27:39;7.60;;;2.47;;
37305;SDS011;23193;42.656;21.170;2024-03-25T13:30:06;6.97;;;2.80;;
37305;SDS011;23193;42.656;21.170;2024-03-25T13:32:32;5.20;;;3.28;;
37305;SDS011;23193;42.656;21.170;2024-03-25T13:34:59;5.82;;;2.72;;
37305;SDS011;23193;42.656;21.170;2024-03-25T13:43:27;21.02;;;5.05;;
37305;SDS011;23193;42.656;21.170;2024-03-25T13:45:53;8.45;;;3.50;;
37305;SDS011;23193;42.656;21.170;2024-03-25T13:48:19;9.48;;;4.18;;
37305;SDS011;23193;42.656;21.170;2024-03-25T13:50:45;8.43;;;3.60;;
37305;SDS011;23193;42.656;21.170;2024-03-25T13:53:13;10.35;;;3.25;;
37305;SDS011;23193;42.656;21.170;2024-03-25T13:55:40;9.07;;;2.42;;
37305;SDS011;23193;42.656;21.170;2024-03-25T13:58:06;5.35;;;1.95;;
37305;SDS011;23193;42.656;21.170;2024-03-25T14:00:34;4.45;;;2.00;;
37305;SDS011;23193;42.656;21.170;2024-03-25T14:03:02;8.40;;;2.97;;
37305;SDS011;23193;42.656;21.170;2024-03-25T14:05:28;5.25;;;2.83;;
37305;SDS011;23193;42.656;21.170;2024-03-25T14:07:54;9.25;;;3.63;;
37305;SDS011;23193;42.656;21.170;2024-03-25T14:10:21;8.82;;;3.00;;
37305;SDS011;23193;42.656;21.170;2024-03-25T14:12:47;8.30;;;2.40;;
37305;SDS011;23193;42.656;21.170;2024-03-25T14:15:13;5.10;;;2.53;;
37305;SDS011;23193;42.656;21.170;2024-03-25T14:17:40;11.30;;;2.97;;
37305;SDS011;23193;42.656;21.170;2024-03-25T14:20:06;12.07;;;3.55;;
37305;SDS011;23193;42.656;21.170;2024-03-25T14:22:32;4.93;;;1.65;;
37305;SDS011;23193;42.656;21.170;2024-03-25T14:24:58;4.20;;;2.10;;